sensor_id;sensor_type;location;lat;lon;timestamp;pressure;altitude;pressure_sealevel;temperature;humidity
29461;BME280;16428;47.836;35.106;2023-11-22T00:01:53;101597.50;;;-1.09;100.00
29461;BME280;16428;47.836;35.106;2023-11-22T00:04:20;101604.22;;;-1.03;100.00
29461;BME280;16428;47.836;35.106;2023-11-22T00:06:47;101604.31;;;-1.05;100.00
29461;BME280;16428;47.836;35.106;2023-11-22T00:09:14;101605.72;;;-1.15;100.00
29461;BME280;16428;47.836;35.106;2023-11-22T00:11:41;101596.28;;;-1.19;100.00
29461;BME280;16428;47.836;35.106;2023-11-22T00:14:08;101610.84;;;-1.12;100.00
29461;BME280;16428;47.836;35.106;2023-11-22T00:16:35;101611.66;;;-1.27;100.00
29461;BME280;16428;47.836;35.106;2023-11-22T00:19:04;101607.31;;;-1.28;100.00
29461;BME280;16428;47.836;35.106;2023-11-22T00:21:33;101616.69;;;-1.23;99.92
29461;BME280;16428;47.836;35.106;2023-11-22T00:24:00;101618.28;;;-1.20;100.00
29461;BME280;16428;47.836;35.106;2023-11-22T00:26:27;101623.41;;;-1.34;100.00
29461;BME280;16428;47.836;35.106;2023-11-22T00:28:54;101620.50;;;-1.28;100.00
29461;BME280;16428;47.836;35.106;2023-11-22T00:31:21;101636.22;;;-1.27;99.31
29461;BME280;16428;47.836;35.106;2023-11-22T00:33:48;101625.13;;;-1.16;99.03
29461;BME280;16428;47.836;35.106;2023-11-22T00:36:15;101614.69;;;-1.02;100.00
29461;BME280;16428;47.836;35.106;2023-11-22T00:38:43;101609.63;;;-1.22;100.00
29461;BME280;16428;47.836;35.106;2023-11-22T00:41:10;101618.13;;;-1.17;99.34
29461;BME280;16428;47.836;35.106;2023-11-22T00:43:38;101617.06;;;-1.30;99.30
29461;BME280;16428;47.836;35.106;2023-11-22T00:46:05;101602.16;;;-1.14;100.00
29461;BME280;16428;47.836;35.106;2023-11-22T00:48:33;101608.78;;;-1.23;97.91
29461;BME280;16428;47.836;35.106;2023-11-22T00:51:00;101611.56;;;-1.26;100.00
29461;BME280;16428;47.836;35.106;2023-11-22T00:53:27;101601.44;;;-1.00;99.10
29461;BME280;16428;47.836;35.106;2023-11-22T00:55:54;101585.81;;;-1.21;96.14
29461;BME280;16428;47.836;35.106;2023-11-22T00:58:22;101594.88;;;-1.09;93.99
29461;BME280;16428;47.836;35.106;2023-11-22T01:00:49;101594.34;;;-1.16;95.54
29461;BME280;16428;47.836;35.106;2023-11-22T01:03:17;101596.41;;;-1.05;95.06
29461;BME280;16428;47.836;35.106;2023-11-22T01:05:44;101596.75;;;-1.11;97.68
29461;BME280;16428;47.836;35.106;2023-11-22T01:08:13;101600.47;;;-1.15;95.27
29461;BME280;16428;47.836;35.106;2023-11-22T01:10:41;101595.97;;;-1.13;95.91
29461;BME280;16428;47.836;35.106;2023-11-22T01:13:07;101595.81;;;-1.10;96.19
29461;BME280;16428;47.836;35.106;2023-11-22T01:15:35;101590.91;;;-1.18;96.83
29461;BME280;16428;47.836;35.106;2023-11-22T01:18:02;101591.19;;;-1.22;97.24
29461;BME280;16428;47.836;35.106;2023-11-22T01:20:29;101585.38;;;-1.29;95.77
29461;BME280;16428;47.836;35.106;2023-11-22T01:22:56;101575.38;;;-1.22;97.28
29461;BME280;16428;47.836;35.106;2023-11-22T01:25:23;101575.44;;;-1.24;96.77
29461;BME280;16428;47.836;35.106;2023-11-22T01:27:50;101566.06;;;-1.29;99.00
29461;BME280;16428;47.836;35.106;2023-11-22T01:30:17;101573.91;;;-1.28;99.51
29461;BME280;16428;47.836;35.106;2023-11-22T01:32:45;101567.91;;;-1.31;99.31
29461;BME280;16428;47.836;35.106;2023-11-22T01:35:13;101577.31;;;-1.26;99.67
29461;BME280;16428;47.836;35.106;2023-11-22T01:37:41;101579.38;;;-1.15;97.15
29461;BME280;16428;47.836;35.106;2023-11-22T01:40:09;101564.34;;;-1.30;97.96
29461;BME280;16428;47.836;35.106;2023-11-22T01:42:37;101576.56;;;-1.12;97.61
29461;BME280;16428;47.836;35.106;2023-11-22T01:45:07;101586.19;;;-1.11;95.96
29461;BME280;16428;47.836;35.106;2023-11-22T01:47:35;101590.75;;;-1.15;95.80
29461;BME280;16428;47.836;35.106;2023-11-22T01:50:04;101585.34;;;-1.12;96.60
29461;BME280;16428;47.836;35.106;2023-11-22T01:52:33;101587.06;;;-1.28;97.22
29461;BME280;16428;47.836;35.106;2023-11-22T01:55:02;101583.88;;;-1.17;95.29
29461;BME280;16428;47.836;35.106;2023-11-22T01:57:32;101580.75;;;-1.08;96.41
29461;BME280;16428;47.836;35.106;2023-11-22T02:00:04;101572.72;;;-1.22;97.45
29461;BME280;16428;47.836;35.106;2023-11-22T02:02:34;101573.03;;;-1.28;96.20
29461;BME280;16428;47.836;35.106;2023-11-22T02:05:02;101580.94;;;-0.95;95.67
29461;BME280;16428;47.836;35.106;2023-11-22T02:07:29;101584.28;;;-0.92;97.18
29461;BME280;16428;47.836;35.106;2023-11-22T02:09:58;101587.34;;;-0.84;94.10
29461;BME280;16428;47.836;35.106;2023-11-22T02:12:25;101587.22;;;-0.65;92.51
29461;BME280;16428;47.836;35.106;2023-11-22T02:14:52;101598.78;;;-0.67;92.46
29461;BME280;16428;47.836;35.106;2023-11-22T02:17:20;101606.88;;;-0.55;90.96
29461;BME280;16428;47.836;35.106;2023-11-22T02:19:48;101609.84;;;-0.77;93.40
29461;BME280;16428;47.836;35.106;2023-11-22T02:22:15;101615.81;;;-0.57;93.18
29461;BME280;16428;47.836;35.106;2023-11-22T02:24:42;101616.78;;;-0.76;94.05
29461;BME280;16428;47.836;35.106;2023-11-22T02:27:09;101615.22;;;-0.62;93.25
29461;BME280;16428;47.836;35.106;2023-11-22T02:29:37;101612.31;;;-0.58;92.03
29461;BME280;16428;47.836;35.106;2023-11-22T02:32:05;101618.88;;;-0.49;93.31
29461;BME280;16428;47.836;35.106;2023-11-22T02:34:32;101618.63;;;-0.45;93.47
29461;BME280;16428;47.836;35.106;2023-11-22T02:36:59;101637.09;;;-0.45;93.95
29461;BME280;16428;47.836;35.106;2023-11-22T02:39:40;101645.84;;;-0.60;94.36
29461;BME280;16428;47.836;35.106;2023-11-22T02:42:10;101632.25;;;-0.52;95.17
29461;BME280;16428;47.836;35.106;2023-11-22T02:44:37;101631.63;;;-0.57;96.12
29461;BME280;16428;47.836;35.106;2023-11-22T02:47:04;101642.47;;;-0.62;96.85
29461;BME280;16428;47.836;35.106;2023-11-22T02:49:31;101633.03;;;-0.50;96.34
29461;BME280;16428;47.836;35.106;2023-11-22T02:51:58;101624.56;;;-0.57;96.16
29461;BME280;16428;47.836;35.106;2023-11-22T02:54:25;101617.50;;;-0.41;96.06
29461;BME280;16428;47.836;35.106;2023-11-22T02:56:52;101613.31;;;-0.60;98.32
29461;BME280;16428;47.836;35.106;2023-11-22T02:59:19;101620.97;;;-0.72;98.19
29461;BME280;16428;47.836;35.106;2023-11-22T03:01:46;101633.06;;;-0.67;98.09
29461;BME280;16428;47.836;35.106;2023-11-22T03:04:13;101627.56;;;-0.96;97.02
29461;BME280;16428;47.836;35.106;2023-11-22T03:06:41;101638.50;;;-0.71;97.54
29461;BME280;16428;47.836;35.106;2023-11-22T03:09:08;101636.09;;;-0.75;95.03
29461;BME280;16428;47.836;35.106;2023-11-22T03:11:35;101635.31;;;-0.93;94.67
29461;BME280;16428;47.836;35.106;2023-11-22T03:14:02;101629.03;;;-0.75;97.17
29461;BME280;16428;47.836;35.106;2023-11-22T03:16:30;101631.91;;;-0.62;96.38
29461;BME280;16428;47.836;35.106;2023-11-22T03:18:57;101619.91;;;-0.52;96.53
29461;BME280;16428;47.836;35.106;2023-11-22T03:21:25;101636.75;;;-0.54;96.34
29461;BME280;16428;47.836;35.106;2023-11-22T03:23:54;101633.09;;;-0.36;96.22
29461;BME280;16428;47.836;35.106;2023-11-22T03:26:21;101623.03;;;-0.61;95.83
29461;BME280;16428;47.836;35.106;2023-11-22T03:28:48;101621.25;;;-0.60;95.10
29461;BME280;16428;47.836;35.106;2023-11-22T03:31:15;101618.06;;;-0.83;96.45
29461;BME280;16428;47.836;35.106;2023-11-22T03:33:43;101613.84;;;-0.69;96.74
29461;BME280;16428;47.836;35.106;2023-11-22T03:36:10;101612.78;;;-0.83;97.15
29461;BME280;16428;47.836;35.106;2023-11-22T03:38:39;101612.81;;;-0.67;97.33
29461;BME280;16428;47.836;35.106;2023-11-22T03:41:06;101609.38;;;-0.85;96.95
29461;BME280;16428;47.836;35.106;2023-11-22T03:43:33;101600.75;;;-0.55;97.30
29461;BME280;16428;47.836;35.106;2023-11-22T03:46:00;101617.28;;;-0.36;97.27
29461;BME280;16428;47.836;35.106;2023-11-22T03:48:28;101605.63;;;-0.32;96.57
29461;BME280;16428;47.836;35.106;2023-11-22T03:50:55;101607.69;;;-0.70;96.87
29461;BME280;16428;47.836;35.106;2023-11-22T03:53:22;101618.13;;;-0.36;94.77
29461;BME280;16428;47.836;35.106;2023-11-22T03:55:49;101620.31;;;-0.28;91.96
29461;BME280;16428;47.836;35.106;2023-11-22T03:58:19;101623.63;;;-0.56;93.60
29461;BME280;16428;47.836;35.106;2023-11-22T04:00:47;101616.38;;;-0.68;95.06
29461;BME280;16428;47.836;35.106;2023-11-22T04:03:14;101609.09;;;-0.47;95.10
29461;BME280;16428;47.836;35.106;2023-11-22T04:05:41;101610.63;;;-0.43;94.39
29461;BME280;16428;47.836;35.106;2023-11-22T04:08:09;101608.66;;;-0.55;95.65
29461;BME280;16428;47.836;35.106;2023-11-22T04:10:36;101610.44;;;-0.56;95.96
29461;BME280;16428;47.836;35.106;2023-11-22T04:13:03;101615.56;;;-0.53;95.86
29461;BME280;16428;47.836;35.106;2023-11-22T04:15:31;101622.38;;;-0.64;94.49
29461;BME280;16428;47.836;35.106;2023-11-22T04:17:59;101624.84;;;-0.61;93.79
29461;BME280;16428;47.836;35.106;2023-11-22T04:20:26;101627.81;;;-0.52;94.28
29461;BME280;16428;47.836;35.106;2023-11-22T04:22:54;101625.97;;;-0.34;95.01
29461;BME280;16428;47.836;35.106;2023-11-22T04:25:21;101619.47;;;-0.28;93.99
29461;BME280;16428;47.836;35.106;2023-11-22T04:27:48;101623.81;;;-0.43;95.00
29461;BME280;16428;47.836;35.106;2023-11-22T04:30:15;101623.50;;;-0.37;95.46
29461;BME280;16428;47.836;35.106;2023-11-22T04:32:44;101624.94;;;-0.47;94.96
29461;BME280;16428;47.836;35.106;2023-11-22T04:35:11;101632.94;;;-0.33;95.86
29461;BME280;16428;47.836;35.106;2023-11-22T04:37:39;101621.94;;;-0.41;96.53
29461;BME280;16428;47.836;35.106;2023-11-22T04:40:06;101622.63;;;-0.53;94.96
29461;BME280;16428;47.836;35.106;2023-11-22T04:42:38;101613.34;;;-0.45;94.27
29461;BME280;16428;47.836;35.106;2023-11-22T04:45:05;101617.44;;;-0.39;94.15
29461;BME280;16428;47.836;35.106;2023-11-22T04:47:33;101620.94;;;-0.39;94.26
29461;BME280;16428;47.836;35.106;2023-11-22T04:50:01;101623.72;;;-0.26;94.37
29461;BME280;16428;47.836;35.106;2023-11-22T04:52:28;101623.16;;;-0.47;93.93
29461;BME280;16428;47.836;35.106;2023-11-22T04:54:58;101629.69;;;-0.38;93.06
29461;BME280;16428;47.836;35.106;2023-11-22T04:57:26;101632.44;;;-0.24;91.58
29461;BME280;16428;47.836;35.106;2023-11-22T04:59:53;101631.56;;;-0.09;90.95
29461;BME280;16428;47.836;35.106;2023-11-22T05:02:20;101627.81;;;-0.36;92.59
29461;BME280;16428;47.836;35.106;2023-11-22T05:04:47;101631.06;;;-0.31;91.87
29461;BME280;16428;47.836;35.106;2023-11-22T05:07:15;101631.22;;;-0.50;92.16
29461;BME280;16428;47.836;35.106;2023-11-22T05:09:42;101625.25;;;-0.53;93.09
29461;BME280;16428;47.836;35.106;2023-11-22T05:12:10;101630.69;;;-0.56;94.14
29461;BME280;16428;47.836;35.106;2023-11-22T05:14:38;101628.66;;;-0.51;93.81
29461;BME280;16428;47.836;35.106;2023-11-22T05:17:06;101630.19;;;-0.63;94.37
29461;BME280;16428;47.836;35.106;2023-11-22T05:19:33;101626.31;;;-0.73;94.44
29461;BME280;16428;47.836;35.106;2023-11-22T05:22:00;101629.09;;;-0.43;92.94
29461;BME280;16428;47.836;35.106;2023-11-22T05:24:27;101633.25;;;-0.55;91.34
29461;BME280;16428;47.836;35.106;2023-11-22T05:26:54;101629.69;;;-0.38;90.83
29461;BME280;16428;47.836;35.106;2023-11-22T05:29:21;101645.13;;;-0.46;90.48
29461;BME280;16428;47.836;35.106;2023-11-22T05:31:48;101634.97;;;-0.38;90.42
29461;BME280;16428;47.836;35.106;2023-11-22T05:34:15;101641.28;;;-0.25;89.64
29461;BME280;16428;47.836;35.106;2023-11-22T05:36:42;101645.22;;;-0.32;89.46
29461;BME280;16428;47.836;35.106;2023-11-22T05:39:09;101641.28;;;-0.25;90.00
29461;BME280;16428;47.836;35.106;2023-11-22T05:41:36;101655.25;;;-0.39;89.72
29461;BME280;16428;47.836;35.106;2023-11-22T05:44:04;101656.97;;;-0.22;91.21
29461;BME280;16428;47.836;35.106;2023-11-22T05:46:31;101654.72;;;-0.29;91.17
29461;BME280;16428;47.836;35.106;2023-11-22T05:48:58;101669.91;;;-0.33;91.33
29461;BME280;16428;47.836;35.106;2023-11-22T05:51:27;101673.38;;;-0.48;90.44
29461;BME280;16428;47.836;35.106;2023-11-22T05:53:55;101659.66;;;-0.39;91.05
29461;BME280;16428;47.836;35.106;2023-11-22T05:56:22;101671.94;;;-0.38;89.42
29461;BME280;16428;47.836;35.106;2023-11-22T05:58:50;101682.47;;;-0.54;89.84
29461;BME280;16428;47.836;35.106;2023-11-22T06:01:17;101690.16;;;-0.49;91.09
29461;BME280;16428;47.836;35.106;2023-11-22T06:03:44;101688.88;;;-0.42;91.47
29461;BME280;16428;47.836;35.106;2023-11-22T06:06:12;101693.59;;;-0.31;91.23
29461;BME280;16428;47.836;35.106;2023-11-22T06:08:40;101687.25;;;-0.29;90.16
29461;BME280;16428;47.836;35.106;2023-11-22T06:11:08;101698.00;;;-0.32;89.75
29461;BME280;16428;47.836;35.106;2023-11-22T06:13:35;101697.25;;;-0.34;90.24
29461;BME280;16428;47.836;35.106;2023-11-22T06:16:02;101690.25;;;-0.35;91.33
29461;BME280;16428;47.836;35.106;2023-11-22T06:18:29;101701.25;;;-0.27;90.56
29461;BME280;16428;47.836;35.106;2023-11-22T06:20:57;101706.19;;;-0.21;90.10
29461;BME280;16428;47.836;35.106;2023-11-22T06:23:24;101707.44;;;-0.28;91.15
29461;BME280;16428;47.836;35.106;2023-11-22T06:25:51;101710.13;;;-0.45;92.94
29461;BME280;16428;47.836;35.106;2023-11-22T06:28:18;101707.19;;;-0.39;94.23
29461;BME280;16428;47.836;35.106;2023-11-22T06:30:45;101701.91;;;-0.39;94.07
29461;BME280;16428;47.836;35.106;2023-11-22T06:33:12;101699.72;;;-0.31;96.08
29461;BME280;16428;47.836;35.106;2023-11-22T06:35:39;101701.28;;;-0.44;96.28
29461;BME280;16428;47.836;35.106;2023-11-22T06:38:09;101706.09;;;-0.35;97.29
29461;BME280;16428;47.836;35.106;2023-11-22T06:40:36;101710.44;;;-0.34;97.76
29461;BME280;16428;47.836;35.106;2023-11-22T06:43:03;101696.78;;;-0.42;99.90
29461;BME280;16428;47.836;35.106;2023-11-22T06:45:33;101707.13;;;-0.22;99.11
29461;BME280;16428;47.836;35.106;2023-11-22T06:48:01;101704.78;;;-0.44;100.00
29461;BME280;16428;47.836;35.106;2023-11-22T06:50:29;101700.28;;;-0.42;100.00
29461;BME280;16428;47.836;35.106;2023-11-22T06:52:57;101699.53;;;-0.28;100.00
29461;BME280;16428;47.836;35.106;2023-11-22T06:55:24;101702.09;;;-0.11;100.00
29461;BME280;16428;47.836;35.106;2023-11-22T06:57:53;101699.22;;;-0.22;100.00
29461;BME280;16428;47.836;35.106;2023-11-22T07:00:21;101695.03;;;-0.26;100.00
29461;BME280;16428;47.836;35.106;2023-11-22T07:02:48;101688.03;;;-0.27;100.00
29461;BME280;16428;47.836;35.106;2023-11-22T07:05:15;101673.09;;;-0.59;100.00
29461;BME280;16428;47.836;35.106;2023-11-22T07:07:42;101676.38;;;-0.39;100.00
29461;BME280;16428;47.836;35.106;2023-11-22T07:10:09;101679.69;;;-0.35;100.00
29461;BME280;16428;47.836;35.106;2023-11-22T07:12:38;101684.03;;;-0.34;100.00
29461;BME280;16428;47.836;35.106;2023-11-22T07:15:07;101673.63;;;-0.37;100.00
29461;BME280;16428;47.836;35.106;2023-11-22T07:17:36;101678.25;;;-0.25;100.00
29461;BME280;16428;47.836;35.106;2023-11-22T07:20:03;101687.88;;;-0.24;100.00
29461;BME280;16428;47.836;35.106;2023-11-22T07:22:35;101691.28;;;-0.22;100.00
29461;BME280;16428;47.836;35.106;2023-11-22T07:25:02;101683.34;;;-0.38;100.00
29461;BME280;16428;47.836;35.106;2023-11-22T07:27:30;101692.06;;;-0.20;100.00
29461;BME280;16428;47.836;35.106;2023-11-22T07:29:59;101679.09;;;-0.40;100.00
29461;BME280;16428;47.836;35.106;2023-11-22T07:32:27;101681.66;;;-0.23;100.00
29461;BME280;16428;47.836;35.106;2023-11-22T07:34:55;101680.56;;;-0.19;100.00
29461;BME280;16428;47.836;35.106;2023-11-22T07:37:22;101675.19;;;-0.33;100.00
29461;BME280;16428;47.836;35.106;2023-11-22T07:39:50;101678.25;;;-0.25;100.00
29461;BME280;16428;47.836;35.106;2023-11-22T07:42:19;101672.97;;;-0.09;100.00
29461;BME280;16428;47.836;35.106;2023-11-22T07:44:45;101679.53;;;-0.32;100.00
29461;BME280;16428;47.836;35.106;2023-11-22T07:47:13;101673.28;;;-0.15;100.00
29461;BME280;16428;47.836;35.106;2023-11-22T07:49:40;101682.84;;;0.03;100.00
29461;BME280;16428;47.836;35.106;2023-11-22T07:52:08;101674.25;;;-0.01;100.00
29461;BME280;16428;47.836;35.106;2023-11-22T07:54:40;101677.91;;;0.13;100.00
29461;BME280;16428;47.836;35.106;2023-11-22T07:57:07;101675.50;;;0.24;100.00
29461;BME280;16428;47.836;35.106;2023-11-22T07:59:34;101678.56;;;0.16;100.00
29461;BME280;16428;47.836;35.106;2023-11-22T08:02:05;101683.38;;;0.10;99.88
29461;BME280;16428;47.836;35.106;2023-11-22T08:04:34;101698.53;;;0.22;99.29
29461;BME280;16428;47.836;35.106;2023-11-22T08:07:02;101701.41;;;-0.14;97.20
29461;BME280;16428;47.836;35.106;2023-11-22T08:09:29;101690.19;;;0.14;98.29
29461;BME280;16428;47.836;35.106;2023-11-22T08:11:59;101691.53;;;0.05;100.00
29461;BME280;16428;47.836;35.106;2023-11-22T08:14:32;101689.06;;;0.18;97.51
29461;BME280;16428;47.836;35.106;2023-11-22T08:17:00;101693.56;;;0.16;93.06
29461;BME280;16428;47.836;35.106;2023-11-22T08:19:29;101695.97;;;0.05;95.78
29461;BME280;16428;47.836;35.106;2023-11-22T08:21:56;101682.28;;;-0.02;94.92
29461;BME280;16428;47.836;35.106;2023-11-22T08:24:24;101691.28;;;-0.06;95.09
29461;BME280;16428;47.836;35.106;2023-11-22T08:26:51;101694.78;;;-0.06;92.31
29461;BME280;16428;47.836;35.106;2023-11-22T08:29:18;101685.56;;;0.02;94.10
29461;BME280;16428;47.836;35.106;2023-11-22T08:31:46;101688.81;;;0.07;92.02
29461;BME280;16428;47.836;35.106;2023-11-22T08:34:14;101682.00;;;0.03;94.26
29461;BME280;16428;47.836;35.106;2023-11-22T08:36:42;101693.75;;;0.13;92.99
29461;BME280;16428;47.836;35.106;2023-11-22T08:39:10;101680.78;;;0.24;94.19
29461;BME280;16428;47.836;35.106;2023-11-22T08:41:37;101676.63;;;0.20;93.64
29461;BME280;16428;47.836;35.106;2023-11-22T08:44:05;101675.66;;;0.37;92.01
29461;BME280;16428;47.836;35.106;2023-11-22T08:46:33;101678.00;;;0.11;92.09
29461;BME280;16428;47.836;35.106;2023-11-22T08:49:00;101674.34;;;0.14;91.93
29461;BME280;16428;47.836;35.106;2023-11-22T08:51:29;101679.03;;;0.09;92.74
29461;BME280;16428;47.836;35.106;2023-11-22T08:53:56;101663.56;;;0.17;91.03
29461;BME280;16428;47.836;35.106;2023-11-22T08:56:23;101656.94;;;0.10;91.96
29461;BME280;16428;47.836;35.106;2023-11-22T08:58:51;101657.97;;;0.07;91.98
29461;BME280;16428;47.836;35.106;2023-11-22T09:01:19;101658.75;;;-0.07;93.38
29461;BME280;16428;47.836;35.106;2023-11-22T09:03:46;101657.03;;;0.08;92.84
29461;BME280;16428;47.836;35.106;2023-11-22T09:06:14;101653.81;;;0.33;93.22
29461;BME280;16428;47.836;35.106;2023-11-22T09:08:42;101652.44;;;0.12;91.81
29461;BME280;16428;47.836;35.106;2023-11-22T09:11:09;101654.06;;;0.14;91.15
29461;BME280;16428;47.836;35.106;2023-11-22T09:13:37;101660.31;;;0.43;89.83
29461;BME280;16428;47.836;35.106;2023-11-22T09:16:06;101662.34;;;0.38;90.92
29461;BME280;16428;47.836;35.106;2023-11-22T09:18:36;101659.50;;;0.57;90.47
29461;BME280;16428;47.836;35.106;2023-11-22T09:21:03;101652.09;;;0.48;91.25
29461;BME280;16428;47.836;35.106;2023-11-22T09:23:32;101664.03;;;0.55;90.63
29461;BME280;16428;47.836;35.106;2023-11-22T09:25:59;101663.72;;;0.45;90.34
29461;BME280;16428;47.836;35.106;2023-11-22T09:28:29;101655.03;;;0.43;88.33
29461;BME280;16428;47.836;35.106;2023-11-22T09:30:57;101656.53;;;0.47;88.44
29461;BME280;16428;47.836;35.106;2023-11-22T09:33:33;101664.22;;;0.36;87.71
29461;BME280;16428;47.836;35.106;2023-11-22T09:36:01;101656.13;;;0.69;96.51
29461;BME280;16428;47.836;35.106;2023-11-22T09:38:36;101653.78;;;0.79;93.64
29461;BME280;16428;47.836;35.106;2023-11-22T09:41:04;101657.00;;;0.84;89.25
29461;BME280;16428;47.836;35.106;2023-11-22T09:43:34;101655.50;;;0.94;87.24
29461;BME280;16428;47.836;35.106;2023-11-22T09:46:03;101658.63;;;0.86;87.80
29461;BME280;16428;47.836;35.106;2023-11-22T09:48:31;101660.41;;;0.86;84.97
29461;BME280;16428;47.836;35.106;2023-11-22T09:51:04;101662.44;;;0.66;87.51
29461;BME280;16428;47.836;35.106;2023-11-22T09:53:57;101649.59;;;0.60;87.57
29461;BME280;16428;47.836;35.106;2023-11-22T09:56:31;101654.72;;;0.78;86.72
29461;BME280;16428;47.836;35.106;2023-11-22T09:59:00;101654.06;;;0.74;86.03
29461;BME280;16428;47.836;35.106;2023-11-22T10:01:30;101651.19;;;0.33;84.16
29461;BME280;16428;47.836;35.106;2023-11-22T10:04:03;101653.16;;;0.45;86.24
29461;BME280;16428;47.836;35.106;2023-11-22T10:06:34;101649.19;;;0.52;84.18
29461;BME280;16428;47.836;35.106;2023-11-22T10:09:03;101648.59;;;0.47;84.37
29461;BME280;16428;47.836;35.106;2023-11-22T10:11:37;101651.59;;;0.11;82.84
29461;BME280;16428;47.836;35.106;2023-11-22T10:14:11;101649.59;;;0.60;86.67
29461;BME280;16428;47.836;35.106;2023-11-22T10:16:59;101645.44;;;0.56;84.99
29461;BME280;16428;47.836;35.106;2023-11-22T10:19:27;101639.53;;;0.51;85.51
29461;BME280;16428;47.836;35.106;2023-11-22T10:22:06;101638.69;;;0.21;87.47
29461;BME280;16428;47.836;35.106;2023-11-22T10:24:35;101634.03;;;0.40;85.84
29461;BME280;16428;47.836;35.106;2023-11-22T10:27:03;101633.09;;;0.71;86.44
29461;BME280;16428;47.836;35.106;2023-11-22T10:29:30;101641.00;;;0.57;85.62
29461;BME280;16428;47.836;35.106;2023-11-22T10:31:58;101643.47;;;0.30;86.54
29461;BME280;16428;47.836;35.106;2023-11-22T10:34:25;101637.53;;;0.41;87.16
29461;BME280;16428;47.836;35.106;2023-11-22T10:36:55;101629.19;;;0.62;87.12
29461;BME280;16428;47.836;35.106;2023-11-22T10:39:22;101624.63;;;0.50;84.11
29461;BME280;16428;47.836;35.106;2023-11-22T10:41:53;101617.28;;;0.55;85.92
29461;BME280;16428;47.836;35.106;2023-11-22T10:44:22;101626.31;;;0.51;86.04
29461;BME280;16428;47.836;35.106;2023-11-22T10:46:50;101623.38;;;0.12;85.44
29461;BME280;16428;47.836;35.106;2023-11-22T10:49:20;101614.94;;;0.35;86.68
29461;BME280;16428;47.836;35.106;2023-11-22T10:51:51;101616.34;;;0.26;88.58
29461;BME280;16428;47.836;35.106;2023-11-22T10:54:20;101614.56;;;0.27;87.95
29461;BME280;16428;47.836;35.106;2023-11-22T10:56:57;101617.19;;;0.27;87.44
29461;BME280;16428;47.836;35.106;2023-11-22T10:59:27;101618.84;;;0.14;85.32
29461;BME280;16428;47.836;35.106;2023-11-22T11:01:56;101623.19;;;0.15;86.30
29461;BME280;16428;47.836;35.106;2023-11-22T11:04:34;101615.31;;;-0.01;85.34
29461;BME280;16428;47.836;35.106;2023-11-22T11:07:09;101617.91;;;0.15;87.88
29461;BME280;16428;47.836;35.106;2023-11-22T11:09:42;101627.19;;;0.22;85.42
29461;BME280;16428;47.836;35.106;2023-11-22T11:12:10;101609.38;;;0.25;86.11
29461;BME280;16428;47.836;35.106;2023-11-22T11:14:40;101612.47;;;0.32;86.40
29461;BME280;16428;47.836;35.106;2023-11-22T11:17:08;101625.56;;;0.19;87.99
29461;BME280;16428;47.836;35.106;2023-11-22T11:19:36;101616.56;;;0.08;86.99
29461;BME280;16428;47.836;35.106;2023-11-22T11:22:07;101620.13;;;0.07;86.96
29461;BME280;16428;47.836;35.106;2023-11-22T11:24:40;101614.53;;;-0.19;87.94
29461;BME280;16428;47.836;35.106;2023-11-22T11:27:10;101616.25;;;-0.18;88.96
29461;BME280;16428;47.836;35.106;2023-11-22T11:29:38;101617.59;;;-0.11;90.56
29461;BME280;16428;47.836;35.106;2023-11-22T11:32:12;101619.53;;;0.02;88.92
29461;BME280;16428;47.836;35.106;2023-11-22T11:34:49;101621.34;;;-0.15;87.83
29461;BME280;16428;47.836;35.106;2023-11-22T11:37:19;101631.38;;;0.10;87.72
29461;BME280;16428;47.836;35.106;2023-11-22T11:39:47;101625.50;;;0.05;89.81
29461;BME280;16428;47.836;35.106;2023-11-22T11:42:15;101623.03;;;0.02;89.29
29461;BME280;16428;47.836;35.106;2023-11-22T11:47:28;101619.09;;;0.09;90.73
29461;BME280;16428;47.836;35.106;2023-11-22T11:49:55;101617.19;;;0.27;89.34
29461;BME280;16428;47.836;35.106;2023-11-22T11:52:25;101626.94;;;0.11;90.54
29461;BME280;16428;47.836;35.106;2023-11-22T11:54:52;101620.00;;;0.24;89.86
29461;BME280;16428;47.836;35.106;2023-11-22T11:57:19;101627.94;;;0.24;88.91
29461;BME280;16428;47.836;35.106;2023-11-22T11:59:47;101619.59;;;0.16;89.27
29461;BME280;16428;47.836;35.106;2023-11-22T12:02:16;101628.31;;;0.02;88.70
29461;BME280;16428;47.836;35.106;2023-11-22T12:04:44;101627.88;;;0.10;90.37
29461;BME280;16428;47.836;35.106;2023-11-22T12:07:11;101626.59;;;0.01;91.81
29461;BME280;16428;47.836;35.106;2023-11-22T12:09:39;101632.41;;;0.08;91.25
29461;BME280;16428;47.836;35.106;2023-11-22T12:12:07;101636.69;;;-0.06;92.99
29461;BME280;16428;47.836;35.106;2023-11-22T12:14:35;101631.41;;;-0.06;90.57
29461;BME280;16428;47.836;35.106;2023-11-22T12:17:03;101632.94;;;-0.02;91.86
29461;BME280;16428;47.836;35.106;2023-11-22T12:19:31;101628.31;;;-0.14;92.79
29461;BME280;16428;47.836;35.106;2023-11-22T12:21:58;101628.00;;;-0.08;92.67
29461;BME280;16428;47.836;35.106;2023-11-22T12:24:26;101632.34;;;-0.07;93.16
29461;BME280;16428;47.836;35.106;2023-11-22T12:26:55;101626.78;;;0.14;92.90
29461;BME280;16428;47.836;35.106;2023-11-22T12:29:23;101622.94;;;0.04;90.63
29461;BME280;16428;47.836;35.106;2023-11-22T12:31:51;101622.31;;;-0.16;94.09
29461;BME280;16428;47.836;35.106;2023-11-22T12:34:22;101625.25;;;0.10;93.53
29461;BME280;16428;47.836;35.106;2023-11-22T12:36:51;101626.69;;;0.15;91.82
29461;BME280;16428;47.836;35.106;2023-11-22T12:39:20;101645.72;;;-0.10;93.19
29461;BME280;16428;47.836;35.106;2023-11-22T12:41:49;101631.41;;;-0.06;92.80
29461;BME280;16428;47.836;35.106;2023-11-22T12:44:47;101634.72;;;0.14;93.42
29461;BME280;16428;47.836;35.106;2023-11-22T12:47:15;101625.88;;;-0.01;92.61
29461;BME280;16428;47.836;35.106;2023-11-22T12:49:57;101642.81;;;-0.05;94.92
29461;BME280;16428;47.836;35.106;2023-11-22T12:52:26;101648.56;;;0.17;93.52